SWA2845 KSAN-KSLC
Flight info
| Callsign | SWA2845 |
|---|---|
| Flight time | 1h 20m |
| Altitude | 37000 |
| Route | ZZOOO4 MTBAL CADEZ HAKMN Q73 LAKRR MLF QWENN6 |
| Aircraft | B738/M-SADE2E3GIJ4RWZ/LB1D1 |
Departure
| Time | 2026-04-26 03:06 |
|---|---|
| Airport | San Diego International Airport (KSAN) |
Arrival
| Time | 2026-04-26 04:27 |
|---|---|
| Airport | Salt Lake City International Airport (KSLC) |
| Time | Latitude | Longitude | Altitude | Speed | Heading |
|---|---|---|---|---|---|
| 2026-04-26 02:47 | 32.73255 | -117.19548 | 22 ft | 0 kts | 314° |
| 2026-04-26 02:58 | 32.73249 | -117.19540 | 19 ft | 4 kts | 317° |
| 2026-04-26 02:58 | 32.73228 | -117.19520 | 39 ft | 4 kts | 328° |
| 2026-04-26 02:58 | 32.73204 | -117.19506 | 21 ft | 4 kts | 346° |
| 2026-04-26 02:58 | 32.73180 | -117.19504 | 20 ft | 2 kts | 14° |
| 2026-04-26 02:59 | 32.73179 | -117.19505 | 20 ft | 0 kts | 15° |
| 2026-04-26 03:01 | 32.73217 | -117.19489 | 23 ft | 12 kts | 25° |
| 2026-04-26 03:02 | 32.73310 | -117.19431 | 21 ft | 16 kts | 38° |
| 2026-04-26 03:02 | 32.73336 | -117.19309 | 20 ft | 17 kts | 103° |
| 2026-04-26 03:02 | 32.73306 | -117.19177 | 19 ft | 16 kts | 106° |
| 2026-04-26 03:02 | 32.73272 | -117.19035 | 24 ft | 20 kts | 105° |
| 2026-04-26 03:03 | 32.73226 | -117.18867 | 22 ft | 22 kts | 106° |
| 2026-04-26 03:03 | 32.73188 | -117.18697 | 23 ft | 21 kts | 104° |
| 2026-04-26 03:03 | 32.73150 | -117.18533 | 20 ft | 20 kts | 105° |
| 2026-04-26 03:03 | 32.73111 | -117.18375 | 22 ft | 20 kts | 107° |
| 2026-04-26 03:04 | 32.73074 | -117.18221 | 19 ft | 19 kts | 106° |
| 2026-04-26 03:04 | 32.73036 | -117.18060 | 16 ft | 21 kts | 105° |
| 2026-04-26 03:04 | 32.72996 | -117.17892 | 17 ft | 22 kts | 106° |
| 2026-04-26 03:04 | 32.72957 | -117.17730 | 17 ft | 16 kts | 104° |
| 2026-04-26 03:05 | 32.72954 | -117.17682 | 16 ft | 0 kts | 85° |
| 2026-04-26 03:05 | 32.72954 | -117.17680 | 16 ft | 4 kts | 85° |
| 2026-04-26 03:05 | 32.72994 | -117.17584 | 20 ft | 17 kts | 15° |
| 2026-04-26 03:05 | 32.73067 | -117.17773 | 18 ft | 52 kts | 285° |
| 2026-04-26 03:06 | 32.73251 | -117.18542 | 22 ft | 139 kts | 286° |
| 2026-04-26 03:06 | 32.73589 | -117.19902 | 323 ft | 190 kts | 285° |
| 2026-04-26 03:06 | 32.73989 | -117.21443 | 1254 ft | 203 kts | 284° |
| 2026-04-26 03:06 | 32.74362 | -117.23036 | 2100 ft | 201 kts | 283° |
| 2026-04-26 03:07 | 32.74752 | -117.24702 | 2366 ft | 221 kts | 283° |
| 2026-04-26 03:07 | 32.75179 | -117.26494 | 2873 ft | 228 kts | 284° |
| 2026-04-26 03:07 | 32.75618 | -117.28316 | 3479 ft | 230 kts | 284° |
| 2026-04-26 03:07 | 32.76061 | -117.30152 | 4165 ft | 233 kts | 284° |
| 2026-04-26 03:08 | 32.76479 | -117.32019 | 4929 ft | 233 kts | 277° |
| 2026-04-26 03:08 | 32.76282 | -117.33920 | 5676 ft | 237 kts | 245° |
| 2026-04-26 03:08 | 32.75276 | -117.35477 | 6575 ft | 240 kts | 219° |
| 2026-04-26 03:08 | 32.73768 | -117.36293 | 7531 ft | 242 kts | 192° |
| 2026-04-26 03:09 | 32.72075 | -117.36138 | 8433 ft | 252 kts | 164° |
| 2026-04-26 03:09 | 32.70570 | -117.34996 | 9272 ft | 265 kts | 142° |
| 2026-04-26 03:09 | 32.69315 | -117.33341 | 10036 ft | 273 kts | 136° |
| 2026-04-26 03:09 | 32.68118 | -117.31592 | 10733 ft | 278 kts | 136° |
| 2026-04-26 03:10 | 32.66880 | -117.29809 | 11488 ft | 281 kts | 137° |
| 2026-04-26 03:10 | 32.65613 | -117.28022 | 12274 ft | 284 kts | 139° |
| 2026-04-26 03:10 | 32.64325 | -117.26227 | 13090 ft | 287 kts | 140° |
| 2026-04-26 03:10 | 32.63190 | -117.24225 | 13857 ft | 308 kts | 118° |
| 2026-04-26 03:11 | 32.62746 | -117.21604 | 14165 ft | 342 kts | 102° |
| 2026-04-26 03:11 | 32.62532 | -117.18680 | 14365 ft | 368 kts | 101° |
| 2026-04-26 03:11 | 32.62296 | -117.15556 | 14591 ft | 389 kts | 101° |
| 2026-04-26 03:11 | 32.62033 | -117.12312 | 15127 ft | 400 kts | 99° |
| 2026-04-26 03:12 | 32.62277 | -117.08966 | 15787 ft | 417 kts | 77° |
| 2026-04-26 03:12 | 32.63305 | -117.05726 | 16576 ft | 422 kts | 69° |
| 2026-04-26 03:12 | 32.64434 | -117.02484 | 17262 ft | 428 kts | 70° |
| 2026-04-26 03:12 | 32.65539 | -116.99220 | 17902 ft | 435 kts | 70° |
| 2026-04-26 03:13 | 32.66570 | -116.95808 | 18536 ft | 439 kts | 79° |
| 2026-04-26 03:13 | 32.66856 | -116.92232 | 19166 ft | 435 kts | 95° |
| 2026-04-26 03:13 | 32.66843 | -116.88634 | 19838 ft | 438 kts | 95° |
| 2026-04-26 03:13 | 32.66880 | -116.84988 | 20449 ft | 443 kts | 94° |
| 2026-04-26 03:14 | 32.67054 | -116.81322 | 21100 ft | 450 kts | 83° |
| 2026-04-26 03:14 | 32.68084 | -116.77774 | 21654 ft | 462 kts | 61° |
| 2026-04-26 03:14 | 32.70034 | -116.74729 | 22213 ft | 465 kts | 41° |
| 2026-04-26 03:14 | 32.72631 | -116.72470 | 22726 ft | 462 kts | 21° |
| 2026-04-26 03:15 | 32.75567 | -116.70917 | 23349 ft | 463 kts | 17° |
| 2026-04-26 03:15 | 32.78572 | -116.69509 | 23855 ft | 466 kts | 15° |
| 2026-04-26 03:15 | 32.81609 | -116.68127 | 24321 ft | 470 kts | 15° |
| 2026-04-26 03:15 | 32.84668 | -116.66705 | 24798 ft | 474 kts | 16° |
| 2026-04-26 03:16 | 32.87745 | -116.65235 | 25245 ft | 478 kts | 17° |
| 2026-04-26 03:16 | 32.90801 | -116.63745 | 25694 ft | 482 kts | 17° |
| 2026-04-26 03:16 | 32.93910 | -116.62211 | 26132 ft | 486 kts | 17° |
| 2026-04-26 03:16 | 32.97061 | -116.60667 | 26559 ft | 490 kts | 17° |
| 2026-04-26 03:17 | 33.00228 | -116.59107 | 26976 ft | 494 kts | 17° |
| 2026-04-26 03:17 | 33.03413 | -116.57505 | 27394 ft | 498 kts | 18° |
| 2026-04-26 03:17 | 33.06607 | -116.55836 | 27755 ft | 501 kts | 20° |
| 2026-04-26 03:17 | 33.09775 | -116.54092 | 28279 ft | 501 kts | 19° |
| 2026-04-26 03:18 | 33.12976 | -116.52412 | 28667 ft | 504 kts | 18° |
| 2026-04-26 03:18 | 33.16166 | -116.50762 | 28997 ft | 508 kts | 18° |
| 2026-04-26 03:18 | 33.19439 | -116.49063 | 29337 ft | 512 kts | 18° |
| 2026-04-26 03:18 | 33.22711 | -116.47363 | 29715 ft | 515 kts | 19° |
| 2026-04-26 03:19 | 33.26003 | -116.45642 | 30037 ft | 518 kts | 19° |
| 2026-04-26 03:19 | 33.29314 | -116.43904 | 30346 ft | 520 kts | 19° |
| 2026-04-26 03:19 | 33.32634 | -116.42155 | 30659 ft | 522 kts | 18° |
| 2026-04-26 03:19 | 33.35823 | -116.40481 | 30889 ft | 525 kts | 19° |
| 2026-04-26 03:20 | 33.39100 | -116.38459 | 31127 ft | 536 kts | 32° |
| 2026-04-26 03:20 | 33.41869 | -116.35451 | 31407 ft | 541 kts | 50° |
| 2026-04-26 03:20 | 33.44099 | -116.31832 | 31861 ft | 539 kts | 56° |
| 2026-04-26 03:20 | 33.46237 | -116.28113 | 32199 ft | 541 kts | 56° |
| 2026-04-26 03:21 | 33.48367 | -116.24384 | 32405 ft | 544 kts | 56° |
| 2026-04-26 03:21 | 33.50543 | -116.20637 | 32564 ft | 549 kts | 55° |
| 2026-04-26 03:21 | 33.52726 | -116.16950 | 32909 ft | 549 kts | 54° |
| 2026-04-26 03:21 | 33.54951 | -116.13231 | 33275 ft | 549 kts | 54° |
| 2026-04-26 03:22 | 33.57182 | -116.09512 | 33597 ft | 549 kts | 54° |
| 2026-04-26 03:22 | 33.59411 | -116.05784 | 33889 ft | 551 kts | 54° |
| 2026-04-26 03:22 | 33.61790 | -116.02177 | 34162 ft | 550 kts | 45° |
| 2026-04-26 03:22 | 33.64475 | -115.98934 | 34636 ft | 544 kts | 41° |
| 2026-04-26 03:23 | 33.67228 | -115.95867 | 35166 ft | 538 kts | 39° |
| 2026-04-26 03:23 | 33.70012 | -115.92838 | 35434 ft | 539 kts | 39° |
| 2026-04-26 03:23 | 33.72753 | -115.89836 | 35650 ft | 541 kts | 39° |
| 2026-04-26 03:23 | 33.75524 | -115.86744 | 35863 ft | 543 kts | 40° |
| 2026-04-26 03:24 | 33.78263 | -115.83630 | 36162 ft | 541 kts | 41° |
| 2026-04-26 03:24 | 33.80982 | -115.80499 | 36507 ft | 540 kts | 41° |
| 2026-04-26 03:24 | 33.83683 | -115.77365 | 36803 ft | 539 kts | 41° |
| 2026-04-26 03:24 | 33.86406 | -115.74201 | 36774 ft | 544 kts | 41° |
| 2026-04-26 03:25 | 33.91854 | -115.67870 | 36782 ft | 543 kts | 41° |
| 2026-04-26 03:25 | 33.97225 | -115.61629 | 36762 ft | 536 kts | 41° |
| 2026-04-26 03:26 | 34.02602 | -115.55377 | 36751 ft | 535 kts | 41° |
| 2026-04-26 03:26 | 34.07042 | -115.50200 | 36768 ft | 532 kts | 41° |
| 2026-04-26 03:27 | 34.12377 | -115.43974 | 36733 ft | 533 kts | 41° |
| 2026-04-26 03:27 | 34.17805 | -115.37879 | 36727 ft | 530 kts | 32° |
| 2026-04-26 03:28 | 34.20906 | -115.35520 | 36728 ft | 522 kts | 20° |
| 2026-04-26 03:28 | 34.24219 | -115.33773 | 36742 ft | 517 kts | 11° |
| 2026-04-26 03:28 | 34.31159 | -115.31986 | 36732 ft | 508 kts | 360° |
| 2026-04-26 03:29 | 34.38106 | -115.30726 | 36722 ft | 508 kts | 359° |
| 2026-04-26 03:29 | 34.45114 | -115.29401 | 36714 ft | 509 kts | 0° |
| 2026-04-26 03:30 | 34.52123 | -115.28011 | 36733 ft | 510 kts | 1° |
| 2026-04-26 03:30 | 34.59127 | -115.26598 | 36715 ft | 510 kts | 1° |
| 2026-04-26 03:31 | 34.66094 | -115.25191 | 36703 ft | 509 kts | 1° |
| 2026-04-26 03:31 | 34.73054 | -115.23787 | 36708 ft | 507 kts | 1° |
| 2026-04-26 03:32 | 34.80018 | -115.22383 | 36721 ft | 506 kts | 1° |
| 2026-04-26 03:32 | 34.86970 | -115.20979 | 36714 ft | 505 kts | 1° |
| 2026-04-26 03:33 | 34.93899 | -115.19577 | 36726 ft | 503 kts | 1° |
| 2026-04-26 03:33 | 35.00762 | -115.18186 | 36759 ft | 502 kts | 1° |
| 2026-04-26 03:34 | 35.07656 | -115.16787 | 36747 ft | 501 kts | 1° |
| 2026-04-26 03:34 | 35.14538 | -115.15388 | 36745 ft | 501 kts | 1° |
| 2026-04-26 03:35 | 35.21414 | -115.13986 | 36761 ft | 500 kts | 1° |
| 2026-04-26 03:35 | 35.28287 | -115.12584 | 36769 ft | 501 kts | 1° |
| 2026-04-26 03:36 | 35.35134 | -115.11184 | 36769 ft | 501 kts | 1° |
| 2026-04-26 03:36 | 35.42014 | -115.09775 | 36767 ft | 501 kts | 1° |
| 2026-04-26 03:37 | 35.48843 | -115.07822 | 36786 ft | 515 kts | 18° |
| 2026-04-26 03:37 | 35.52020 | -115.05715 | 36777 ft | 523 kts | 31° |
| 2026-04-26 03:37 | 35.54831 | -115.02840 | 36765 ft | 529 kts | 45° |
| 2026-04-26 03:38 | 35.59667 | -114.96025 | 36744 ft | 529 kts | 48° |
| 2026-04-26 03:38 | 35.64478 | -114.89246 | 36764 ft | 529 kts | 46° |
| 2026-04-26 03:39 | 35.69407 | -114.82529 | 36732 ft | 529 kts | 46° |
| 2026-04-26 03:39 | 35.74330 | -114.75807 | 36709 ft | 528 kts | 46° |
| 2026-04-26 03:40 | 35.79244 | -114.69069 | 36714 ft | 528 kts | 46° |
| 2026-04-26 03:40 | 35.84153 | -114.62320 | 36665 ft | 528 kts | 46° |
| 2026-04-26 03:41 | 35.89056 | -114.55568 | 36681 ft | 529 kts | 46° |
| 2026-04-26 03:41 | 35.93962 | -114.48798 | 36674 ft | 528 kts | 46° |
| 2026-04-26 03:42 | 35.98824 | -114.42075 | 36665 ft | 528 kts | 46° |
| 2026-04-26 03:42 | 36.03718 | -114.35295 | 36659 ft | 528 kts | 46° |
| 2026-04-26 03:43 | 36.08987 | -114.29040 | 36669 ft | 522 kts | 32° |
| 2026-04-26 03:43 | 36.15257 | -114.24727 | 36679 ft | 513 kts | 18° |
| 2026-04-26 03:44 | 36.21779 | -114.21283 | 36672 ft | 512 kts | 17° |
| 2026-04-26 03:44 | 36.28341 | -114.17820 | 36668 ft | 513 kts | 17° |
| 2026-04-26 03:45 | 36.34886 | -114.14283 | 36661 ft | 513 kts | 18° |
| 2026-04-26 03:45 | 36.41419 | -114.10719 | 36672 ft | 513 kts | 18° |
| 2026-04-26 03:46 | 36.47956 | -114.07139 | 36675 ft | 512 kts | 18° |
| 2026-04-26 03:47 | 36.57697 | -114.01796 | 36667 ft | 511 kts | 18° |
| 2026-04-26 03:47 | 36.64198 | -113.98224 | 36700 ft | 510 kts | 18° |
| 2026-04-26 03:48 | 36.70689 | -113.94654 | 36678 ft | 509 kts | 18° |
| 2026-04-26 03:48 | 36.77167 | -113.91076 | 36686 ft | 508 kts | 18° |
| 2026-04-26 03:49 | 36.83494 | -113.87580 | 36684 ft | 507 kts | 18° |
| 2026-04-26 03:49 | 36.89948 | -113.84006 | 36695 ft | 507 kts | 19° |
| 2026-04-26 03:50 | 36.96390 | -113.80431 | 36698 ft | 505 kts | 19° |
| 2026-04-26 03:50 | 37.02766 | -113.76899 | 36733 ft | 504 kts | 18° |
| 2026-04-26 03:51 | 37.09184 | -113.73362 | 36740 ft | 503 kts | 17° |
| 2026-04-26 03:51 | 37.15593 | -113.69796 | 36743 ft | 505 kts | 18° |
| 2026-04-26 03:52 | 37.22016 | -113.66177 | 36723 ft | 506 kts | 18° |
| 2026-04-26 03:52 | 37.28452 | -113.62611 | 36692 ft | 506 kts | 18° |
| 2026-04-26 03:53 | 37.34884 | -113.58987 | 36701 ft | 507 kts | 18° |
| 2026-04-26 03:53 | 37.41278 | -113.55371 | 36714 ft | 507 kts | 19° |
| 2026-04-26 03:54 | 37.47711 | -113.51742 | 36700 ft | 507 kts | 19° |
| 2026-04-26 03:54 | 37.54148 | -113.48112 | 36706 ft | 506 kts | 18° |
| 2026-04-26 03:55 | 37.60575 | -113.44481 | 36706 ft | 505 kts | 18° |
| 2026-04-26 03:55 | 37.66985 | -113.40855 | 36754 ft | 504 kts | 18° |
| 2026-04-26 03:56 | 37.73351 | -113.37245 | 36757 ft | 503 kts | 18° |
| 2026-04-26 03:56 | 37.79742 | -113.33610 | 36763 ft | 502 kts | 19° |
| 2026-04-26 03:57 | 37.86098 | -113.29988 | 36755 ft | 501 kts | 18° |
| 2026-04-26 03:57 | 37.92459 | -113.26367 | 36737 ft | 501 kts | 19° |
| 2026-04-26 03:58 | 37.98776 | -113.22759 | 36684 ft | 500 kts | 19° |
| 2026-04-26 03:58 | 38.05124 | -113.19125 | 36681 ft | 500 kts | 19° |
| 2026-04-26 03:59 | 38.11478 | -113.15479 | 36681 ft | 501 kts | 19° |
| 2026-04-26 03:59 | 38.17829 | -113.11830 | 36712 ft | 501 kts | 19° |
| 2026-04-26 04:00 | 38.24178 | -113.08173 | 36729 ft | 501 kts | 19° |
| 2026-04-26 04:00 | 38.30525 | -113.04510 | 36755 ft | 501 kts | 19° |
| 2026-04-26 04:01 | 38.36834 | -113.00866 | 36767 ft | 500 kts | 18° |
| 2026-04-26 04:01 | 38.43243 | -112.97399 | 36772 ft | 499 kts | 16° |
| 2026-04-26 04:02 | 38.49681 | -112.94034 | 36766 ft | 499 kts | 16° |
| 2026-04-26 04:02 | 38.56106 | -112.90635 | 36744 ft | 500 kts | 17° |
| 2026-04-26 04:03 | 38.62532 | -112.87199 | 36691 ft | 501 kts | 17° |
| 2026-04-26 04:03 | 38.65707 | -112.85496 | 36555 ft | 503 kts | 17° |
| 2026-04-26 04:03 | 38.68946 | -112.83759 | 36017 ft | 505 kts | 17° |
| 2026-04-26 04:03 | 38.72178 | -112.82021 | 35458 ft | 502 kts | 18° |
| 2026-04-26 04:04 | 38.75401 | -112.80287 | 34819 ft | 502 kts | 18° |
| 2026-04-26 04:04 | 38.78631 | -112.78549 | 34177 ft | 503 kts | 18° |
| 2026-04-26 04:04 | 38.81858 | -112.76813 | 33465 ft | 504 kts | 18° |
| 2026-04-26 04:04 | 38.85093 | -112.75070 | 32729 ft | 504 kts | 18° |
| 2026-04-26 04:05 | 38.88322 | -112.73326 | 32059 ft | 502 kts | 18° |
| 2026-04-26 04:05 | 38.91540 | -112.71587 | 31432 ft | 500 kts | 18° |
| 2026-04-26 04:05 | 38.94727 | -112.69861 | 30945 ft | 494 kts | 18° |
| 2026-04-26 04:05 | 38.97882 | -112.68152 | 30439 ft | 490 kts | 18° |
| 2026-04-26 04:06 | 39.01011 | -112.66457 | 29938 ft | 485 kts | 17° |
| 2026-04-26 04:06 | 39.04111 | -112.64776 | 29386 ft | 481 kts | 17° |
| 2026-04-26 04:06 | 39.07182 | -112.63109 | 28823 ft | 476 kts | 17° |
| 2026-04-26 04:06 | 39.10185 | -112.61478 | 28331 ft | 471 kts | 18° |
| 2026-04-26 04:07 | 39.13189 | -112.59845 | 27796 ft | 466 kts | 18° |
| 2026-04-26 04:07 | 39.16166 | -112.58225 | 27288 ft | 462 kts | 18° |
| 2026-04-26 04:07 | 39.19115 | -112.56619 | 26784 ft | 458 kts | 18° |
| 2026-04-26 04:07 | 39.22040 | -112.55025 | 26282 ft | 454 kts | 18° |
| 2026-04-26 04:08 | 39.24936 | -112.53446 | 25793 ft | 450 kts | 18° |
| 2026-04-26 04:08 | 39.27816 | -112.51873 | 25299 ft | 448 kts | 18° |
| 2026-04-26 04:08 | 39.30682 | -112.50306 | 24816 ft | 446 kts | 18° |
| 2026-04-26 04:08 | 39.33518 | -112.48712 | 24391 ft | 443 kts | 19° |
| 2026-04-26 04:09 | 39.36293 | -112.47119 | 23908 ft | 441 kts | 20° |
| 2026-04-26 04:09 | 39.39096 | -112.45498 | 23408 ft | 442 kts | 20° |
| 2026-04-26 04:09 | 39.41907 | -112.43873 | 22835 ft | 440 kts | 20° |
| 2026-04-26 04:09 | 39.44706 | -112.42257 | 22305 ft | 436 kts | 20° |
| 2026-04-26 04:10 | 39.47467 | -112.40666 | 21787 ft | 432 kts | 20° |
| 2026-04-26 04:10 | 39.50203 | -112.39090 | 21290 ft | 428 kts | 20° |
| 2026-04-26 04:10 | 39.52874 | -112.37551 | 20808 ft | 423 kts | 21° |
| 2026-04-26 04:10 | 39.55555 | -112.36007 | 20327 ft | 419 kts | 21° |
| 2026-04-26 04:11 | 39.58209 | -112.34477 | 19875 ft | 415 kts | 21° |
| 2026-04-26 04:11 | 39.60837 | -112.32959 | 19398 ft | 411 kts | 21° |
| 2026-04-26 04:11 | 39.63440 | -112.31455 | 18966 ft | 407 kts | 21° |
| 2026-04-26 04:11 | 39.66013 | -112.29967 | 18521 ft | 403 kts | 22° |
| 2026-04-26 04:12 | 39.68573 | -112.28487 | 18068 ft | 399 kts | 22° |
| 2026-04-26 04:12 | 39.71098 | -112.27024 | 17550 ft | 396 kts | 22° |
| 2026-04-26 04:12 | 39.73608 | -112.25570 | 17050 ft | 392 kts | 22° |
| 2026-04-26 04:12 | 39.76057 | -112.24150 | 16574 ft | 388 kts | 22° |
| 2026-04-26 04:13 | 39.78446 | -112.22763 | 16121 ft | 385 kts | 22° |
| 2026-04-26 04:13 | 39.80883 | -112.21348 | 15689 ft | 381 kts | 22° |
| 2026-04-26 04:13 | 39.83269 | -112.19960 | 15413 ft | 372 kts | 22° |
| 2026-04-26 04:13 | 39.85618 | -112.18594 | 15009 ft | 368 kts | 23° |
| 2026-04-26 04:14 | 39.87926 | -112.17250 | 14592 ft | 365 kts | 23° |
| 2026-04-26 04:14 | 39.89482 | -112.16343 | 14451 ft | 359 kts | 23° |
| 2026-04-26 04:14 | 39.91735 | -112.15030 | 14301 ft | 350 kts | 23° |
| 2026-04-26 04:14 | 39.93928 | -112.13751 | 14157 ft | 341 kts | 23° |
| 2026-04-26 04:15 | 39.96065 | -112.12503 | 13998 ft | 333 kts | 22° |
| 2026-04-26 04:15 | 39.98144 | -112.11362 | 13853 ft | 324 kts | 18° |
| 2026-04-26 04:15 | 40.00271 | -112.10463 | 13705 ft | 319 kts | 15° |
| 2026-04-26 04:15 | 40.02394 | -112.09655 | 13565 ft | 317 kts | 14° |
| 2026-04-26 04:16 | 40.04511 | -112.08859 | 13407 ft | 314 kts | 14° |
| 2026-04-26 04:16 | 40.06610 | -112.08059 | 13252 ft | 314 kts | 14° |
| 2026-04-26 04:16 | 40.08705 | -112.07249 | 13114 ft | 315 kts | 15° |
| 2026-04-26 04:16 | 40.10804 | -112.06427 | 12970 ft | 315 kts | 15° |
| 2026-04-26 04:17 | 40.12906 | -112.05596 | 12821 ft | 315 kts | 15° |
| 2026-04-26 04:17 | 40.15005 | -112.04762 | 12673 ft | 315 kts | 15° |
| 2026-04-26 04:17 | 40.17083 | -112.03934 | 12527 ft | 315 kts | 15° |
| 2026-04-26 04:17 | 40.19185 | -112.03094 | 12376 ft | 315 kts | 15° |
| 2026-04-26 04:18 | 40.21277 | -112.02257 | 12230 ft | 314 kts | 15° |
| 2026-04-26 04:18 | 40.23363 | -112.01421 | 12089 ft | 313 kts | 15° |
| 2026-04-26 04:18 | 40.25447 | -112.00586 | 11942 ft | 312 kts | 15° |
| 2026-04-26 04:18 | 40.27506 | -111.99760 | 11836 ft | 306 kts | 16° |
| 2026-04-26 04:19 | 40.29547 | -111.98940 | 11672 ft | 308 kts | 16° |
| 2026-04-26 04:19 | 40.31603 | -111.98115 | 11518 ft | 310 kts | 16° |
| 2026-04-26 04:19 | 40.33672 | -111.97283 | 11362 ft | 310 kts | 16° |
| 2026-04-26 04:19 | 40.35704 | -111.96466 | 11202 ft | 309 kts | 16° |
| 2026-04-26 04:20 | 40.37736 | -111.95647 | 11063 ft | 300 kts | 17° |
| 2026-04-26 04:20 | 40.39742 | -111.95128 | 10836 ft | 291 kts | 358° |
| 2026-04-26 04:20 | 40.41734 | -111.95341 | 10536 ft | 285 kts | 353° |
| 2026-04-26 04:20 | 40.43702 | -111.95585 | 10210 ft | 283 kts | 354° |
| 2026-04-26 04:21 | 40.45655 | -111.95798 | 9887 ft | 279 kts | 354° |
| 2026-04-26 04:21 | 40.47581 | -111.96013 | 9566 ft | 276 kts | 353° |
| 2026-04-26 04:21 | 40.49481 | -111.96233 | 9237 ft | 272 kts | 353° |
| 2026-04-26 04:21 | 40.51362 | -111.96454 | 8913 ft | 269 kts | 352° |
| 2026-04-26 04:22 | 40.53181 | -111.96669 | 8601 ft | 264 kts | 353° |
| 2026-04-26 04:22 | 40.55000 | -111.96886 | 8310 ft | 260 kts | 353° |
| 2026-04-26 04:22 | 40.56792 | -111.97098 | 8009 ft | 257 kts | 353° |
| 2026-04-26 04:22 | 40.58565 | -111.97307 | 7712 ft | 254 kts | 353° |
| 2026-04-26 04:23 | 40.60302 | -111.97511 | 7584 ft | 247 kts | 354° |
| 2026-04-26 04:23 | 40.62004 | -111.97711 | 7292 ft | 242 kts | 354° |
| 2026-04-26 04:23 | 40.63655 | -111.97907 | 6986 ft | 234 kts | 354° |
| 2026-04-26 04:23 | 40.65254 | -111.98096 | 6682 ft | 227 kts | 354° |
| 2026-04-26 04:24 | 40.66797 | -111.98277 | 6397 ft | 218 kts | 355° |
| 2026-04-26 04:24 | 40.68279 | -111.98452 | 6109 ft | 209 kts | 354° |
| 2026-04-26 04:24 | 40.69687 | -111.98618 | 5845 ft | 203 kts | 354° |
| 2026-04-26 04:24 | 40.71063 | -111.98780 | 5601 ft | 192 kts | 354° |
| 2026-04-26 04:25 | 40.72333 | -111.98929 | 5325 ft | 173 kts | 353° |
| 2026-04-26 04:25 | 40.73486 | -111.99076 | 5043 ft | 162 kts | 351° |
| 2026-04-26 04:25 | 40.74593 | -111.99221 | 4801 ft | 158 kts | 354° |
| 2026-04-26 04:25 | 40.75689 | -111.99327 | 4609 ft | 155 kts | 354° |
| 2026-04-26 04:26 | 40.76744 | -111.99454 | 4457 ft | 151 kts | 352° |
| 2026-04-26 04:26 | 40.77806 | -111.99585 | 4298 ft | 154 kts | 354° |
| 2026-04-26 04:26 | 40.78844 | -111.99708 | 4251 ft | 140 kts | 351° |
| 2026-04-26 04:26 | 40.79679 | -111.99804 | 4232 ft | 71 kts | 357° |
| 2026-04-26 04:27 | 40.80036 | -111.99818 | 4234 ft | 42 kts | 8° |
| 2026-04-26 04:27 | 40.80152 | -111.99667 | 4233 ft | 21 kts | 117° |
| 2026-04-26 04:27 | 40.79999 | -111.99618 | 4234 ft | 26 kts | 175° |
| 2026-04-26 04:27 | 40.79810 | -111.99602 | 4234 ft | 28 kts | 175° |
| 2026-04-26 04:28 | 40.79610 | -111.99577 | 4234 ft | 30 kts | 174° |
| 2026-04-26 04:28 | 40.79402 | -111.99554 | 4234 ft | 31 kts | 175° |
| 2026-04-26 04:28 | 40.79184 | -111.99527 | 4234 ft | 31 kts | 174° |
| 2026-04-26 04:28 | 40.78991 | -111.99504 | 4234 ft | 26 kts | 176° |
| 2026-04-26 04:29 | 40.78815 | -111.99484 | 4235 ft | 24 kts | 175° |
| 2026-04-26 04:29 | 40.78719 | -111.99394 | 4234 ft | 19 kts | 88° |
| 2026-04-26 04:29 | 40.78725 | -111.99228 | 4234 ft | 18 kts | 85° |
| 2026-04-26 04:29 | 40.78733 | -111.99066 | 4234 ft | 17 kts | 86° |
| 2026-04-26 04:30 | 40.78744 | -111.98918 | 4234 ft | 13 kts | 85° |
| 2026-04-26 04:30 | 40.78760 | -111.98833 | 4234 ft | 7 kts | 33° |
| 2026-04-26 04:30 | 40.78805 | -111.98832 | 4234 ft | 7 kts | 355° |
| 2026-04-26 04:30 | 40.78828 | -111.98835 | 4234 ft | 0 kts | 355° |